sensor_id;sensor_type;location;lat;lon;timestamp;pressure;altitude;pressure_sealevel;temperature;humidity
6096;BME280;25081;42.698;23.298;2024-01-15T00:00:58;94752.98;;;-3.51;91.08
6096;BME280;25081;42.698;23.298;2024-01-15T00:03:09;94760.28;;;-3.55;91.32
6096;BME280;25081;42.698;23.298;2024-01-15T00:05:20;94747.84;;;-3.75;91.54
6096;BME280;25081;42.698;23.298;2024-01-15T00:07:30;94740.84;;;-3.74;92.12
6096;BME280;25081;42.698;23.298;2024-01-15T00:09:41;94745.45;;;-3.68;92.27
6096;BME280;25081;42.698;23.298;2024-01-15T00:11:51;94744.48;;;-3.67;92.09
6096;BME280;25081;42.698;23.298;2024-01-15T00:14:02;94745.16;;;-3.79;92.19
6096;BME280;25081;42.698;23.298;2024-01-15T00:16:13;94742.52;;;-3.69;92.80
6096;BME280;25081;42.698;23.298;2024-01-15T00:18:23;94738.83;;;-3.66;92.22
6096;BME280;25081;42.698;23.298;2024-01-15T00:20:34;94748.55;;;-3.68;92.09
6096;BME280;25081;42.698;23.298;2024-01-15T00:22:44;94742.23;;;-3.80;91.97
6096;BME280;25081;42.698;23.298;2024-01-15T00:24:55;94747.55;;;-3.85;92.71
6096;BME280;25081;42.698;23.298;2024-01-15T00:27:06;94755.06;;;-3.82;92.79
6096;BME280;25081;42.698;23.298;2024-01-15T00:29:17;94761.05;;;-3.86;92.74
6096;BME280;25081;42.698;23.298;2024-01-15T00:31:27;94743.49;;;-3.84;92.85
6096;BME280;25081;42.698;23.298;2024-01-15T00:33:38;94743.56;;;-3.89;93.21
6096;BME280;25081;42.698;23.298;2024-01-15T00:35:48;94752.34;;;-3.90;93.33
6096;BME280;25081;42.698;23.298;2024-01-15T00:37:59;94742.82;;;-3.86;93.46
6096;BME280;25081;42.698;23.298;2024-01-15T00:40:10;94751.48;;;-3.81;93.00
6096;BME280;25081;42.698;23.298;2024-01-15T00:42:21;94751.94;;;-3.86;93.04
6096;BME280;25081;42.698;23.298;2024-01-15T00:44:31;94747.17;;;-3.86;92.86
6096;BME280;25081;42.698;23.298;2024-01-15T00:46:45;94742.04;;;-3.82;93.11
6096;BME280;25081;42.698;23.298;2024-01-15T00:48:56;94739.29;;;-3.94;92.82
6096;BME280;25081;42.698;23.298;2024-01-15T00:51:06;94740.38;;;-3.97;93.14
6096;BME280;25081;42.698;23.298;2024-01-15T00:53:17;94751.41;;;-3.99;93.06
6096;BME280;25081;42.698;23.298;2024-01-15T00:55:28;94740.26;;;-3.95;93.22
6096;BME280;25081;42.698;23.298;2024-01-15T00:57:38;94741.08;;;-3.95;93.16
6096;BME280;25081;42.698;23.298;2024-01-15T00:59:49;94749.30;;;-3.99;93.32
6096;BME280;25081;42.698;23.298;2024-01-15T01:01:59;94742.45;;;-4.00;93.44
6096;BME280;25081;42.698;23.298;2024-01-15T01:04:10;94742.64;;;-3.98;92.69
6096;BME280;25081;42.698;23.298;2024-01-15T01:06:20;94738.11;;;-3.96;92.88
6096;BME280;25081;42.698;23.298;2024-01-15T01:08:31;94740.00;;;-4.02;93.07
6096;BME280;25081;42.698;23.298;2024-01-15T01:10:41;94739.03;;;-4.01;92.93
6096;BME280;25081;42.698;23.298;2024-01-15T01:12:52;94737.54;;;-4.04;93.38
6096;BME280;25081;42.698;23.298;2024-01-15T01:15:03;94739.25;;;-4.08;92.95
6096;BME280;25081;42.698;23.298;2024-01-15T01:17:14;94728.47;;;-4.13;93.37
6096;BME280;25081;42.698;23.298;2024-01-15T01:19:25;94736.09;;;-4.02;93.30
6096;BME280;25081;42.698;23.298;2024-01-15T01:21:35;94732.34;;;-4.04;93.25
6096;BME280;25081;42.698;23.298;2024-01-15T01:23:46;94726.80;;;-4.05;93.14
6096;BME280;25081;42.698;23.298;2024-01-15T01:25:56;94729.59;;;-4.02;92.67
6096;BME280;25081;42.698;23.298;2024-01-15T01:28:07;94722.16;;;-3.97;92.87
6096;BME280;25081;42.698;23.298;2024-01-15T01:30:17;94718.45;;;-3.81;92.09
6096;BME280;25081;42.698;23.298;2024-01-15T01:32:28;94721.59;;;-4.05;92.20
6096;BME280;25081;42.698;23.298;2024-01-15T01:34:42;94718.35;;;-3.89;92.79
6096;BME280;25081;42.698;23.298;2024-01-15T01:36:52;94718.25;;;-3.97;92.03
6096;BME280;25081;42.698;23.298;2024-01-15T01:39:03;94711.63;;;-3.95;92.49
6096;BME280;25081;42.698;23.298;2024-01-15T01:41:13;94717.43;;;-3.97;92.67
6096;BME280;25081;42.698;23.298;2024-01-15T01:43:23;94708.95;;;-3.99;92.57
6096;BME280;25081;42.698;23.298;2024-01-15T01:45:34;94703.81;;;-3.95;92.73
6096;BME280;25081;42.698;23.298;2024-01-15T01:47:45;94707.23;;;-3.95;92.40
6096;BME280;25081;42.698;23.298;2024-01-15T01:49:55;94700.73;;;-3.95;92.77
6096;BME280;25081;42.698;23.298;2024-01-15T01:52:06;94707.46;;;-4.02;92.31
6096;BME280;25081;42.698;23.298;2024-01-15T01:54:18;94705.72;;;-4.11;92.75
6096;BME280;25081;42.698;23.298;2024-01-15T01:56:28;94700.14;;;-4.02;93.00
6096;BME280;25081;42.698;23.298;2024-01-15T01:58:40;94703.41;;;-4.00;92.38
6096;BME280;25081;42.698;23.298;2024-01-15T02:00:51;94701.84;;;-4.21;92.96
6096;BME280;25081;42.698;23.298;2024-01-15T02:03:02;94702.86;;;-4.18;93.26
6096;BME280;25081;42.698;23.298;2024-01-15T02:05:13;94691.78;;;-4.06;93.06
6096;BME280;25081;42.698;23.298;2024-01-15T02:07:23;94695.31;;;-4.11;92.80
6096;BME280;25081;42.698;23.298;2024-01-15T02:09:34;94687.80;;;-4.00;93.11
6096;BME280;25081;42.698;23.298;2024-01-15T02:11:45;94695.41;;;-4.03;92.82
6096;BME280;25081;42.698;23.298;2024-01-15T02:13:55;94692.48;;;-4.04;92.57
6096;BME280;25081;42.698;23.298;2024-01-15T02:16:09;94688.09;;;-4.04;92.58
6096;BME280;25081;42.698;23.298;2024-01-15T02:18:20;94684.08;;;-4.12;92.42
6096;BME280;25081;42.698;23.298;2024-01-15T02:20:31;94680.84;;;-4.23;92.67
6096;BME280;25081;42.698;23.298;2024-01-15T02:22:41;94676.05;;;-4.28;93.15
6096;BME280;25081;42.698;23.298;2024-01-15T02:24:52;94671.92;;;-4.21;93.56
6096;BME280;25081;42.698;23.298;2024-01-15T02:27:03;94644.64;;;-4.17;92.98
6096;BME280;25081;42.698;23.298;2024-01-15T02:29:13;94635.80;;;-4.47;93.59
6096;BME280;25081;42.698;23.298;2024-01-15T02:31:24;94629.08;;;-4.40;94.34
6096;BME280;25081;42.698;23.298;2024-01-15T02:33:34;94634.53;;;-4.20;94.78
6096;BME280;25081;42.698;23.298;2024-01-15T02:35:45;94626.00;;;-3.85;94.09
6096;BME280;25081;42.698;23.298;2024-01-15T02:37:56;94628.66;;;-3.94;93.87
6096;BME280;25081;42.698;23.298;2024-01-15T02:40:08;94633.52;;;-4.09;93.54
6096;BME280;25081;42.698;23.298;2024-01-15T02:42:19;94638.44;;;-4.20;93.56
6096;BME280;25081;42.698;23.298;2024-01-15T02:44:29;94635.27;;;-4.14;93.60
6096;BME280;25081;42.698;23.298;2024-01-15T02:46:40;94630.77;;;-4.08;93.05
6096;BME280;25081;42.698;23.298;2024-01-15T02:48:52;94642.21;;;-4.05;93.20
6096;BME280;25081;42.698;23.298;2024-01-15T02:51:04;94638.19;;;-3.99;93.29
6096;BME280;25081;42.698;23.298;2024-01-15T02:53:14;94636.55;;;-4.00;92.70
6096;BME280;25081;42.698;23.298;2024-01-15T02:55:25;94636.52;;;-4.04;92.59
6096;BME280;25081;42.698;23.298;2024-01-15T02:57:35;94637.55;;;-3.97;92.74
6096;BME280;25081;42.698;23.298;2024-01-15T02:59:46;94628.17;;;-3.94;92.88
6096;BME280;25081;42.698;23.298;2024-01-15T03:01:56;94631.59;;;-3.93;93.01
6096;BME280;25081;42.698;23.298;2024-01-15T03:04:07;94620.78;;;-3.98;92.85
6096;BME280;25081;42.698;23.298;2024-01-15T03:06:18;94629.99;;;-3.90;93.15
6096;BME280;25081;42.698;23.298;2024-01-15T03:08:28;94624.06;;;-3.83;92.82
6096;BME280;25081;42.698;23.298;2024-01-15T03:10:38;94637.89;;;-3.96;92.50
6096;BME280;25081;42.698;23.298;2024-01-15T03:12:49;94631.05;;;-3.97;92.88
6096;BME280;25081;42.698;23.298;2024-01-15T03:15:00;94632.69;;;-3.96;93.05
6096;BME280;25081;42.698;23.298;2024-01-15T03:17:10;94626.27;;;-3.88;92.30
6096;BME280;25081;42.698;23.298;2024-01-15T03:19:21;94622.70;;;-3.87;92.66
6096;BME280;25081;42.698;23.298;2024-01-15T03:21:31;94618.52;;;-3.84;92.86
6096;BME280;25081;42.698;23.298;2024-01-15T03:23:42;94619.77;;;-3.88;92.67
6096;BME280;25081;42.698;23.298;2024-01-15T03:25:53;94621.45;;;-3.83;92.65
6096;BME280;25081;42.698;23.298;2024-01-15T03:28:05;94611.13;;;-3.75;91.85
6096;BME280;25081;42.698;23.298;2024-01-15T03:30:16;94612.34;;;-3.83;91.53
6096;BME280;25081;42.698;23.298;2024-01-15T03:32:27;94609.34;;;-3.88;91.33
6096;BME280;25081;42.698;23.298;2024-01-15T03:34:37;94599.15;;;-3.85;91.68
6096;BME280;25081;42.698;23.298;2024-01-15T03:36:48;94608.47;;;-3.79;91.86
6096;BME280;25081;42.698;23.298;2024-01-15T03:38:58;94606.01;;;-3.66;91.51
6096;BME280;25081;42.698;23.298;2024-01-15T03:41:09;94609.36;;;-3.56;91.62
6096;BME280;25081;42.698;23.298;2024-01-15T03:43:19;94605.88;;;-3.43;91.40
6096;BME280;25081;42.698;23.298;2024-01-15T03:45:30;94605.42;;;-3.38;90.90
6096;BME280;25081;42.698;23.298;2024-01-15T03:47:41;94597.58;;;-3.25;90.02
6096;BME280;25081;42.698;23.298;2024-01-15T03:49:51;94600.25;;;-3.17;89.50
6096;BME280;25081;42.698;23.298;2024-01-15T03:52:02;94599.78;;;-3.34;89.37
6096;BME280;25081;42.698;23.298;2024-01-15T03:54:12;94601.34;;;-3.41;89.46
6096;BME280;25081;42.698;23.298;2024-01-15T03:56:23;94605.09;;;-3.39;89.77
6096;BME280;25081;42.698;23.298;2024-01-15T03:58:33;94606.14;;;-3.50;90.13
6096;BME280;25081;42.698;23.298;2024-01-15T04:00:44;94605.70;;;-3.46;90.33
6096;BME280;25081;42.698;23.298;2024-01-15T04:02:54;94598.73;;;-3.59;89.57
6096;BME280;25081;42.698;23.298;2024-01-15T04:05:06;94599.94;;;-4.02;89.94
6096;BME280;25081;42.698;23.298;2024-01-15T04:07:17;94594.06;;;-3.87;91.09
6096;BME280;25081;42.698;23.298;2024-01-15T04:09:27;94585.16;;;-3.84;90.21
6096;BME280;25081;42.698;23.298;2024-01-15T04:11:38;94585.37;;;-3.78;90.80
6096;BME280;25081;42.698;23.298;2024-01-15T04:13:48;94585.12;;;-3.70;90.20
6096;BME280;25081;42.698;23.298;2024-01-15T04:15:59;94587.16;;;-3.78;89.87
6096;BME280;25081;42.698;23.298;2024-01-15T04:18:10;94575.91;;;-3.65;90.94
6096;BME280;25081;42.698;23.298;2024-01-15T04:20:20;94587.16;;;-3.60;91.21
6096;BME280;25081;42.698;23.298;2024-01-15T04:22:31;94582.44;;;-3.61;90.36
6096;BME280;25081;42.698;23.298;2024-01-15T04:24:41;94582.59;;;-3.62;89.64
6096;BME280;25081;42.698;23.298;2024-01-15T04:26:52;94580.96;;;-3.63;90.37
6096;BME280;25081;42.698;23.298;2024-01-15T04:29:03;94578.78;;;-3.68;90.59
6096;BME280;25081;42.698;23.298;2024-01-15T04:31:23;94588.05;;;-3.69;90.46
6096;BME280;25081;42.698;23.298;2024-01-15T04:33:33;94590.72;;;-3.79;90.56
6096;BME280;25081;42.698;23.298;2024-01-15T04:35:44;94579.49;;;-3.80;91.09
6096;BME280;25081;42.698;23.298;2024-01-15T04:37:54;94585.03;;;-3.79;91.14
6096;BME280;25081;42.698;23.298;2024-01-15T04:40:08;94584.01;;;-3.86;91.21
6096;BME280;25081;42.698;23.298;2024-01-15T04:42:18;94590.55;;;-3.82;91.00
6096;BME280;25081;42.698;23.298;2024-01-15T04:46:49;94576.72;;;-3.96;91.12
6096;BME280;25081;42.698;23.298;2024-01-15T04:49:00;94582.05;;;-4.01;91.77
6096;BME280;25081;42.698;23.298;2024-01-15T04:51:10;94573.84;;;-4.07;91.88
6096;BME280;25081;42.698;23.298;2024-01-15T04:53:21;94577.84;;;-3.98;92.56
6096;BME280;25081;42.698;23.298;2024-01-15T04:55:31;94576.90;;;-4.11;92.54
6096;BME280;25081;42.698;23.298;2024-01-15T04:57:42;94568.58;;;-3.97;92.26
6096;BME280;25081;42.698;23.298;2024-01-15T04:59:52;94555.20;;;-4.02;92.69
6096;BME280;25081;42.698;23.298;2024-01-15T05:02:03;94559.19;;;-3.94;92.37
6096;BME280;25081;42.698;23.298;2024-01-15T05:04:14;94566.23;;;-3.86;92.45
6096;BME280;25081;42.698;23.298;2024-01-15T05:06:24;94566.25;;;-4.04;92.30
6096;BME280;25081;42.698;23.298;2024-01-15T05:08:34;94560.10;;;-3.99;92.64
6096;BME280;25081;42.698;23.298;2024-01-15T05:10:45;94564.06;;;-3.95;92.17
6096;BME280;25081;42.698;23.298;2024-01-15T05:12:55;94553.02;;;-3.93;92.58
6096;BME280;25081;42.698;23.298;2024-01-15T05:15:07;94545.08;;;-3.87;92.36
6096;BME280;25081;42.698;23.298;2024-01-15T05:17:17;94541.72;;;-3.84;92.00
6096;BME280;25081;42.698;23.298;2024-01-15T05:21:37;94558.92;;;-3.69;91.55
6096;BME280;25081;42.698;23.298;2024-01-15T05:23:47;94557.06;;;-3.59;91.12
6096;BME280;25081;42.698;23.298;2024-01-15T05:25:58;94556.12;;;-3.76;90.90
6096;BME280;25081;42.698;23.298;2024-01-15T05:28:08;94557.47;;;-3.67;90.88
6096;BME280;25081;42.698;23.298;2024-01-15T05:30:19;94558.92;;;-3.69;91.12
6096;BME280;25081;42.698;23.298;2024-01-15T05:32:30;94561.05;;;-3.68;90.83
6096;BME280;25081;42.698;23.298;2024-01-15T05:34:40;94555.06;;;-3.83;91.14
6096;BME280;25081;42.698;23.298;2024-01-15T05:36:50;94546.59;;;-3.85;91.15
6096;BME280;25081;42.698;23.298;2024-01-15T05:39:01;94539.11;;;-3.84;90.92
6096;BME280;25081;42.698;23.298;2024-01-15T05:41:12;94538.06;;;-3.91;91.17
6096;BME280;25081;42.698;23.298;2024-01-15T05:43:22;94542.06;;;-3.96;91.01
6096;BME280;25081;42.698;23.298;2024-01-15T05:45:33;94547.75;;;-3.97;90.96
6096;BME280;25081;42.698;23.298;2024-01-15T05:47:43;94546.02;;;-3.92;91.84
6096;BME280;25081;42.698;23.298;2024-01-15T05:49:54;94546.73;;;-4.04;91.59
6096;BME280;25081;42.698;23.298;2024-01-15T05:52:05;94528.64;;;-4.37;92.08
6096;BME280;25081;42.698;23.298;2024-01-15T05:54:16;94526.95;;;-4.56;93.49
6096;BME280;25081;42.698;23.298;2024-01-15T05:56:26;94524.91;;;-4.35;94.04
6096;BME280;25081;42.698;23.298;2024-01-15T05:58:37;94520.89;;;-4.15;93.60
6096;BME280;25081;42.698;23.298;2024-01-15T06:00:47;94523.06;;;-4.11;93.29
6096;BME280;25081;42.698;23.298;2024-01-15T06:02:58;94531.39;;;-4.07;93.02
6096;BME280;25081;42.698;23.298;2024-01-15T06:05:08;94541.38;;;-3.85;92.59
6096;BME280;25081;42.698;23.298;2024-01-15T06:07:19;94540.43;;;-3.97;92.16
6096;BME280;25081;42.698;23.298;2024-01-15T06:09:30;94543.00;;;-4.01;92.73
6096;BME280;25081;42.698;23.298;2024-01-15T06:11:40;94540.08;;;-3.85;92.21
6096;BME280;25081;42.698;23.298;2024-01-15T06:13:50;94543.05;;;-3.80;91.58
6096;BME280;25081;42.698;23.298;2024-01-15T06:16:01;94538.55;;;-3.91;91.19
6096;BME280;25081;42.698;23.298;2024-01-15T06:18:11;94542.80;;;-4.22;92.08
6096;BME280;25081;42.698;23.298;2024-01-15T06:20:22;94540.18;;;-3.90;91.86
6096;BME280;25081;42.698;23.298;2024-01-15T06:22:32;94530.10;;;-3.71;91.17
6096;BME280;25081;42.698;23.298;2024-01-15T06:24:43;94530.86;;;-3.57;90.46
6096;BME280;25081;42.698;23.298;2024-01-15T06:26:53;94512.84;;;-3.72;89.56
6096;BME280;25081;42.698;23.298;2024-01-15T06:29:04;94510.59;;;-3.67;90.45
6096;BME280;25081;42.698;23.298;2024-01-15T06:31:14;94514.38;;;-3.44;90.29
6096;BME280;25081;42.698;23.298;2024-01-15T06:33:25;94524.46;;;-3.19;89.63
6096;BME280;25081;42.698;23.298;2024-01-15T06:35:35;94531.52;;;-3.11;88.37
6096;BME280;25081;42.698;23.298;2024-01-15T06:37:46;94531.75;;;-3.01;87.92
6096;BME280;25081;42.698;23.298;2024-01-15T06:39:57;94535.11;;;-2.86;87.99
6096;BME280;25081;42.698;23.298;2024-01-15T06:42:07;94531.58;;;-2.77;86.80
6096;BME280;25081;42.698;23.298;2024-01-15T06:44:18;94520.87;;;-2.62;86.86
6096;BME280;25081;42.698;23.298;2024-01-15T06:46:29;94530.76;;;-2.78;86.06
6096;BME280;25081;42.698;23.298;2024-01-15T06:48:39;94526.64;;;-2.84;86.50
6096;BME280;25081;42.698;23.298;2024-01-15T06:50:50;94529.71;;;-2.55;86.59
6096;BME280;25081;42.698;23.298;2024-01-15T06:53:00;94521.53;;;-2.14;86.22
6096;BME280;25081;42.698;23.298;2024-01-15T06:55:11;94530.12;;;-2.38;84.83
6096;BME280;25081;42.698;23.298;2024-01-15T06:57:21;94533.31;;;-2.86;86.18
6096;BME280;25081;42.698;23.298;2024-01-15T06:59:32;94540.47;;;-2.58;87.16
6096;BME280;25081;42.698;23.298;2024-01-15T07:01:42;94537.84;;;-2.16;85.36
6096;BME280;25081;42.698;23.298;2024-01-15T07:03:53;94544.86;;;-2.16;85.87
6096;BME280;25081;42.698;23.298;2024-01-15T07:06:04;94545.32;;;-2.29;85.49
6096;BME280;25081;42.698;23.298;2024-01-15T07:08:15;94540.48;;;-2.04;85.28
6096;BME280;25081;42.698;23.298;2024-01-15T07:10:25;94537.39;;;-2.11;84.95
6096;BME280;25081;42.698;23.298;2024-01-15T07:12:36;94534.91;;;-2.13;84.45
6096;BME280;25081;42.698;23.298;2024-01-15T07:14:47;94538.14;;;-2.23;84.77
6096;BME280;25081;42.698;23.298;2024-01-15T07:16:57;94544.27;;;-2.48;85.54
6096;BME280;25081;42.698;23.298;2024-01-15T07:19:08;94547.57;;;-2.34;85.90
6096;BME280;25081;42.698;23.298;2024-01-15T07:21:18;94545.41;;;-2.47;85.20
6096;BME280;25081;42.698;23.298;2024-01-15T07:23:29;94538.80;;;-2.63;86.36
6096;BME280;25081;42.698;23.298;2024-01-15T07:25:39;94536.08;;;-2.03;86.14
6096;BME280;25081;42.698;23.298;2024-01-15T07:27:50;94541.63;;;-2.10;84.72
6096;BME280;25081;42.698;23.298;2024-01-15T07:30:00;94538.39;;;-2.00;85.84
6096;BME280;25081;42.698;23.298;2024-01-15T07:32:11;94527.56;;;-2.13;85.12
6096;BME280;25081;42.698;23.298;2024-01-15T07:34:21;94521.87;;;-2.05;84.65
6096;BME280;25081;42.698;23.298;2024-01-15T07:36:32;94516.34;;;-1.93;84.01
6096;BME280;25081;42.698;23.298;2024-01-15T07:38:42;94524.68;;;-1.98;83.99
6096;BME280;25081;42.698;23.298;2024-01-15T07:40:53;94516.58;;;-1.62;83.53
6096;BME280;25081;42.698;23.298;2024-01-15T07:43:04;94516.70;;;-1.76;82.56
6096;BME280;25081;42.698;23.298;2024-01-15T07:45:14;94525.04;;;-1.64;83.48
6096;BME280;25081;42.698;23.298;2024-01-15T07:47:25;94533.05;;;-1.66;82.16
6096;BME280;25081;42.698;23.298;2024-01-15T07:49:35;94519.11;;;-2.11;83.12
6096;BME280;25081;42.698;23.298;2024-01-15T07:51:46;94524.41;;;-1.70;83.63
6096;BME280;25081;42.698;23.298;2024-01-15T07:53:56;94534.53;;;-1.47;82.94
6096;BME280;25081;42.698;23.298;2024-01-15T07:56:07;94531.28;;;-1.41;81.29
6096;BME280;25081;42.698;23.298;2024-01-15T07:58:17;94531.28;;;-1.33;81.18
6096;BME280;25081;42.698;23.298;2024-01-15T08:00:28;94535.15;;;-1.90;82.67
6096;BME280;25081;42.698;23.298;2024-01-15T08:02:38;94493.53;;;-1.47;81.87
6096;BME280;25081;42.698;23.298;2024-01-15T08:04:49;94493.87;;;-1.41;81.23
6096;BME280;25081;42.698;23.298;2024-01-15T08:06:59;94495.00;;;-1.56;82.03
6096;BME280;25081;42.698;23.298;2024-01-15T08:09:10;94501.36;;;-1.55;82.91
6096;BME280;25081;42.698;23.298;2024-01-15T08:11:20;94511.63;;;-1.08;81.30
6096;BME280;25081;42.698;23.298;2024-01-15T08:13:33;94520.56;;;-0.78;80.86
6096;BME280;25081;42.698;23.298;2024-01-15T08:15:44;94523.31;;;-0.20;79.86
6096;BME280;25081;42.698;23.298;2024-01-15T08:17:55;94526.95;;;0.06;79.03
6096;BME280;25081;42.698;23.298;2024-01-15T08:20:07;94509.48;;;0.25;77.88
6096;BME280;25081;42.698;23.298;2024-01-15T08:22:17;94515.84;;;0.04;77.19
6096;BME280;25081;42.698;23.298;2024-01-15T08:24:28;94516.19;;;0.01;77.62
6096;BME280;25081;42.698;23.298;2024-01-15T08:26:38;94527.80;;;0.02;77.15
6096;BME280;25081;42.698;23.298;2024-01-15T08:28:49;94527.77;;;0.10;77.95
6096;BME280;25081;42.698;23.298;2024-01-15T08:30:59;94532.12;;;0.18;77.04
6096;BME280;25081;42.698;23.298;2024-01-15T08:33:10;94515.22;;;0.47;75.91
6096;BME280;25081;42.698;23.298;2024-01-15T08:35:20;94510.48;;;0.66;74.81
6096;BME280;25081;42.698;23.298;2024-01-15T08:37:31;94507.95;;;-0.23;76.76
6096;BME280;25081;42.698;23.298;2024-01-15T08:39:42;94508.13;;;-0.29;77.42
6096;BME280;25081;42.698;23.298;2024-01-15T08:41:54;94491.76;;;0.31;76.93
6096;BME280;25081;42.698;23.298;2024-01-15T08:44:05;94500.05;;;0.62;75.89
6096;BME280;25081;42.698;23.298;2024-01-15T08:46:16;94492.02;;;1.30;74.30
6096;BME280;25081;42.698;23.298;2024-01-15T08:48:28;94493.25;;;1.38;73.31
6096;BME280;25081;42.698;23.298;2024-01-15T08:50:40;94380.33;;;0.83;73.65
6096;BME280;25081;42.698;23.298;2024-01-15T08:52:52;94498.35;;;1.51;71.85
6096;BME280;25081;42.698;23.298;2024-01-15T08:55:04;94493.02;;;1.59;72.43
6096;BME280;25081;42.698;23.298;2024-01-15T08:57:14;94489.84;;;1.34;72.43
6096;BME280;25081;42.698;23.298;2024-01-15T08:59:25;94475.78;;;1.46;72.20
6096;BME280;25081;42.698;23.298;2024-01-15T09:01:35;94465.20;;;1.05;73.08
6096;BME280;25081;42.698;23.298;2024-01-15T09:03:46;94464.50;;;0.78;75.44
6096;BME280;25081;42.698;23.298;2024-01-15T09:05:56;94470.70;;;0.96;75.39
6096;BME280;25081;42.698;23.298;2024-01-15T09:08:07;94472.02;;;1.29;73.18
6096;BME280;25081;42.698;23.298;2024-01-15T09:10:18;94454.53;;;1.22;73.50
6096;BME280;25081;42.698;23.298;2024-01-15T09:12:28;94446.26;;;1.29;72.65
6096;BME280;25081;42.698;23.298;2024-01-15T09:14:39;94433.69;;;1.64;72.18
6096;BME280;25081;42.698;23.298;2024-01-15T09:16:50;94424.88;;;1.47;71.97
6096;BME280;25081;42.698;23.298;2024-01-15T09:19:00;94416.78;;;2.20;70.83
6096;BME280;25081;42.698;23.298;2024-01-15T09:21:11;94421.89;;;2.71;70.10
6096;BME280;25081;42.698;23.298;2024-01-15T09:23:22;94418.73;;;2.82;68.78
6096;BME280;25081;42.698;23.298;2024-01-15T09:25:32;94408.70;;;2.54;67.81
6096;BME280;25081;42.698;23.298;2024-01-15T09:27:43;94404.91;;;2.24;69.12
6096;BME280;25081;42.698;23.298;2024-01-15T09:29:53;94394.88;;;2.35;69.25
6096;BME280;25081;42.698;23.298;2024-01-15T09:32:04;94397.45;;;2.17;69.93
6096;BME280;25081;42.698;23.298;2024-01-15T09:34:14;94397.78;;;2.57;69.66
6096;BME280;25081;42.698;23.298;2024-01-15T09:36:25;94399.36;;;2.62;68.63
6096;BME280;25081;42.698;23.298;2024-01-15T09:38:35;94402.50;;;2.29;69.01
6096;BME280;25081;42.698;23.298;2024-01-15T09:40:46;94384.84;;;2.45;69.18
6096;BME280;25081;42.698;23.298;2024-01-15T09:42:57;94386.75;;;2.57;68.83
6096;BME280;25081;42.698;23.298;2024-01-15T09:45:09;94375.73;;;3.21;67.01
6096;BME280;25081;42.698;23.298;2024-01-15T09:47:19;94362.34;;;3.39;65.96
6096;BME280;25081;42.698;23.298;2024-01-15T09:49:30;94358.71;;;2.99;67.21
6096;BME280;25081;42.698;23.298;2024-01-15T09:51:41;94356.47;;;2.68;68.45
6096;BME280;25081;42.698;23.298;2024-01-15T09:53:51;94352.61;;;2.36;68.69
6096;BME280;25081;42.698;23.298;2024-01-15T09:56:02;94344.11;;;4.45;63.48
6096;BME280;25081;42.698;23.298;2024-01-15T09:58:13;94326.11;;;7.85;54.13
6096;BME280;25081;42.698;23.298;2024-01-15T10:00:24;94312.98;;;7.81;49.64
6096;BME280;25081;42.698;23.298;2024-01-15T10:02:34;94311.20;;;10.21;46.61
6096;BME280;25081;42.698;23.298;2024-01-15T10:04:46;94313.64;;;11.21;42.81
6096;BME280;25081;42.698;23.298;2024-01-15T10:06:56;94316.67;;;11.68;41.36
6096;BME280;25081;42.698;23.298;2024-01-15T10:09:07;94310.38;;;11.98;40.23
6096;BME280;25081;42.698;23.298;2024-01-15T10:11:18;94308.11;;;10.41;41.57
6096;BME280;25081;42.698;23.298;2024-01-15T10:13:29;94309.73;;;7.88;46.26
6096;BME280;25081;42.698;23.298;2024-01-15T10:15:39;94297.02;;;5.71;54.76
6096;BME280;25081;42.698;23.298;2024-01-15T10:17:51;94298.45;;;6.21;52.82
6096;BME280;25081;42.698;23.298;2024-01-15T10:20:01;94304.67;;;5.64;54.96
6096;BME280;25081;42.698;23.298;2024-01-15T10:22:13;94300.92;;;5.11;55.40
6096;BME280;25081;42.698;23.298;2024-01-15T10:24:22;94299.03;;;3.87;58.36
6096;BME280;25081;42.698;23.298;2024-01-15T10:26:33;94298.02;;;4.54;58.54
6096;BME280;25081;42.698;23.298;2024-01-15T10:28:44;94282.79;;;4.50;57.15
6096;BME280;25081;42.698;23.298;2024-01-15T10:30:55;94280.85;;;3.01;63.18
6096;BME280;25081;42.698;23.298;2024-01-15T10:33:06;94285.66;;;4.09;59.73
6096;BME280;25081;42.698;23.298;2024-01-15T10:35:16;94285.39;;;3.27;61.36
6096;BME280;25081;42.698;23.298;2024-01-15T10:37:27;94283.42;;;3.99;60.99
6096;BME280;25081;42.698;23.298;2024-01-15T10:39:37;94270.23;;;4.12;59.73
6096;BME280;25081;42.698;23.298;2024-01-15T10:41:48;94273.25;;;4.49;59.07
6096;BME280;25081;42.698;23.298;2024-01-15T10:43:58;94269.98;;;4.67;58.35
6096;BME280;25081;42.698;23.298;2024-01-15T10:46:09;94270.91;;;4.43;58.44
6096;BME280;25081;42.698;23.298;2024-01-15T10:48:19;94270.83;;;3.31;61.30
6096;BME280;25081;42.698;23.298;2024-01-15T10:50:29;94272.08;;;2.70;64.06
6096;BME280;25081;42.698;23.298;2024-01-15T10:52:40;94264.49;;;4.62;59.81
6096;BME280;25081;42.698;23.298;2024-01-15T10:54:50;94256.55;;;5.33;57.27
6096;BME280;25081;42.698;23.298;2024-01-15T10:57:01;94246.01;;;5.04;55.43
6096;BME280;25081;42.698;23.298;2024-01-15T10:59:11;94247.63;;;5.05;58.19
6096;BME280;25081;42.698;23.298;2024-01-15T11:01:22;94251.82;;;5.19;56.78
6096;BME280;25081;42.698;23.298;2024-01-15T11:03:32;94248.80;;;5.15;55.94
6096;BME280;25081;42.698;23.298;2024-01-15T11:05:43;94244.35;;;5.70;55.75
6096;BME280;25081;42.698;23.298;2024-01-15T11:07:57;94242.16;;;6.33;55.44
6096;BME280;25081;42.698;23.298;2024-01-15T11:10:09;94232.39;;;6.85;52.96
6096;BME280;25081;42.698;23.298;2024-01-15T11:12:20;94226.19;;;7.01;50.93
6096;BME280;25081;42.698;23.298;2024-01-15T11:14:38;94219.27;;;6.81;52.20
6096;BME280;25081;42.698;23.298;2024-01-15T11:16:57;94226.36;;;4.86;55.04
6096;BME280;25081;42.698;23.298;2024-01-15T11:19:07;94212.55;;;5.77;56.30
6096;BME280;25081;42.698;23.298;2024-01-15T11:21:24;94208.69;;;5.95;53.83
6096;BME280;25081;42.698;23.298;2024-01-15T11:23:44;94215.82;;;5.88;56.46
6096;BME280;25081;42.698;23.298;2024-01-15T11:25:55;94207.00;;;6.87;53.20
6096;BME280;25081;42.698;23.298;2024-01-15T11:28:05;94203.59;;;7.07;51.77
6096;BME280;25081;42.698;23.298;2024-01-15T11:30:16;94196.41;;;6.87;51.28
6096;BME280;25081;42.698;23.298;2024-01-15T11:32:32;94199.90;;;6.01;53.47
6096;BME280;25081;42.698;23.298;2024-01-15T11:34:55;94203.11;;;5.31;55.12
6096;BME280;25081;42.698;23.298;2024-01-15T11:37:06;94203.34;;;4.78;57.70
6096;BME280;25081;42.698;23.298;2024-01-15T11:39:41;94195.80;;;5.89;55.78